Latest Coastal Weather Observations for Christmas Island

IDW60701

Issued at 4:03 am WST Saturday 1 October 2016 (issued every 10 minutes, with the page automatically refreshed every 10 minutes)

About coastal observations | Map of coastal stations | Coastal observations for WA | Marine services | Other Formats
Station Details ID: 200790 Name: CHRISTMAS ISLAND AERO Lat: -10.45 Lon: 105.69 Height: 261.0 m
Data from the previous 72 hours. | See also: Recent months at Christmas Island
Date/Time
WST
Temp
°C
Wind Pressure Rain since
9am
mm
Weather Cloud Vis
km
Sea
Height
m
Swell
Dir  Spd
kts
Gust
kts
hPa Trend Height
m
Period
s
Dir
01/04:00am 23.7 S 6 11 1009.3 - 19.2 - Cloudy 2 - - - -
01/03:30am 23.5 SSW 5 9 1010.8 - 18.4 - Partly cloudy 9 - - - -
01/03:20am 23.7 SSW 7 13 1010.9 - 18.4 - Partly cloudy 1 - - - -
01/03:12am 23.9 S 7 13 1010.9 - 18.4 - Cloudy 0.9 - - - -
01/03:00am 23.9 S 6 10 1010.9 - 18.4 - Cloudy 2 - - - -
01/02:56am 23.8 S 7 12 1011.0 - 18.4 - Cloudy 6 - - - -
01/02:48am 23.8 S 6 11 1011.0 - 18.4 - Partly cloudy 10 - - - -
01/02:30am 24.2 S 6 11 1011.1 - 18.0 - Partly cloudy 5 - - - -
01/02:00am 24.1 S 6 10 1011.1 - 14.6 - Partly cloudy 5 - - - -
01/01:38am 24.1 S 5 11 1011.4 - 8.2 - Partly cloudy 6 - - - -
01/01:30am 24.1 S 6 11 1011.4 - 7.8 - Partly cloudy 10 - - - -
01/01:26am 24.2 S 5 10 1011.4 - 7.8 - Partly cloudy 10 - - - -
01/01:11am 24.2 S 6 12 1011.4 - 7.6 - Partly cloudy 1 - - - -
01/01:00am 24.4 SSW 6 11 1010.0 - 7.6 - Mostly cloudy 0.9 - - - -
01/12:59am 24.4 S 6 11 1011.4 - 7.6 - Cloudy 0.9 - - - -
01/12:30am 24.4 S 5 9 1011.4 - 6.8 - Cloudy 3 - - - -
01/12:23am 24.5 S 6 10 1011.5 - 5.8 - Cloudy 5 - - - -
01/12:00am 24.5 SSE 6 11 1011.7 - 3.0 - Partly cloudy 10 - - - -
 
Date/Time
WST
Temp
°C
Wind Pressure Rain since
9am
mm
Weather Cloud Vis
km
Sea
Height
m
Swell
Dir  Spd
kts
Gust
kts
hPa Trend Height
m
Period
s
Dir
30/11:30pm 24.6 S 5 10 1012.1 - 3.0 - Partly cloudy 10 - - - -
30/11:26pm 24.6 S 5 9 1012.1 - 3.0 - Partly cloudy 10 - - - -
30/11:13pm 24.4 SSW 6 10 1012.1 - 3.0 - Partly cloudy 6 - - - -
30/11:00pm 24.5 S 6 14 1012.1 - 2.6 - Partly cloudy 10 - - - -
30/10:47pm 24.5 S 5 9 1012.1 - 2.6 - Partly cloudy 10 - - - -
30/10:30pm 24.5 SSW 6 11 1011.8 - 2.4 - Partly cloudy 3 - - - -
30/10:24pm 24.6 SSW 6 11 1011.8 - 1.2 - Partly cloudy 6 - - - -
30/10:00pm 24.5 S 5 8 1010.3 - 0.2 - Cloudy 10 - - - -
30/09:30pm 24.3 SSW 5 10 1011.4 - 0.2 - Partly cloudy 10 - - - -
30/09:00pm 24.4 S 5 8 1011.1 - 0.2 - Partly cloudy 10 - - - -
30/08:30pm 24.3 S 4 7 1010.8 - 0.2 - Partly cloudy 10 - - - -
30/08:19pm 24.3 S 5 7 1010.7 - 0.2 - Partly cloudy 10 - - - -
30/08:00pm 24.3 SSW 4 6 1010.4 - 0.2 - Partly cloudy 10 - - - -
30/07:51pm 24.3 S 5 7 1010.3 - 0.2 - Partly cloudy 10 - - - -
30/07:30pm 24.4 S 5 8 1010.3 - 0.2 - Partly cloudy 10 - - - -
30/07:00pm 24.7 S 4 7 1008.4 - 0.2 - Mostly cloudy 10 - - - -
30/06:30pm 25.1 SSW 3 6 1009.3 - 0.2 - Partly cloudy 10 - - - -
30/06:11pm 25.1 SSE 5 8 1009.1 - 0.2 - Partly cloudy 10 - - - -
30/06:00pm 25.4 SSE 4 7 1009.0 - 0.2 - Partly cloudy 9 - - - -
30/05:30pm 26.0 N 3 7 1008.7 - 0.2 - Partly cloudy 10 - - - -
30/05:00pm 26.8 N 3 4 1008.7 - 0.2 - Partly cloudy 10 - - - -
30/04:42pm 27.1 N 4 7 1008.7 - 0.2 - Partly cloudy 10 - - - -
30/04:30pm 27.4 N 6 10 1008.8 - 0.2 - Partly cloudy 10 - - - -
30/04:21pm 28.0 N 6 9 1008.8 - 0.2 - Partly cloudy 10 - - - -
30/04:00pm 28.5 N 6 9 1007.2 - 0.2 - Cloudy 10 - - - -
30/03:30pm 28.2 N 5 9 1008.8 - 0.2 - Partly cloudy 10 - - - -
30/03:25pm 27.9 N 5 9 1008.9 - 0.2 - Partly cloudy 10 - - - -
30/03:02pm 27.7 N 6 9 1009.1 - 0.2 - Partly cloudy 10 - - - -
30/03:00pm 27.5 N 6 9 1009.1 - 0.2 - Partly cloudy 10 - - - -
30/02:30pm 27.9 N 5 9 1009.5 - 0.2 - Partly cloudy 10 - - - -
30/02:05pm 27.9 N 6 9 1009.7 - 0.2 - Partly cloudy 10 - - - -
30/02:00pm 28.1 N 7 9 1009.8 - 0.2 - Partly cloudy 10 - - - -
30/01:50pm 27.7 NW 7 10 1009.9 - 0.2 - Partly cloudy 10 - - - -
30/01:48pm 27.6 WNW 7 10 1009.9 - 0.2 - Partly cloudy 10 - - - -
30/01:30pm 27.3 NNW 8 12 1010.0 - 0.2 - Partly cloudy 10 - - - -
30/01:06pm 27.3 N 6 7 1010.1 - 0.2 - Partly cloudy 10 - - - -
30/01:00pm 26.6 N 6 8 1008.8 - 0.2 - Cloudy 10 - - - -
30/12:30pm 26.0 N 7 8 1010.7 - 0.2 - Cloudy 10 - - - -
30/12:00pm 26.3 N 2 5 1011.1 - 0.2 - Partly cloudy 10 - - - -
30/11:30am 26.5 N 5 6 1011.3 - 0.2 - Partly cloudy 10 - - - -
30/11:00am 26.2 N 2 5 1011.7 - 0.0 - Cloudy 10 - - - -
30/10:30am 26.9 N 4 5 1011.8 - 0.0 - Partly cloudy 10 - - - -
30/10:03am 26.0 N 3 5 1011.8 - 0.0 - Partly cloudy 10 - - - -
30/10:00am 26.0 N 3 4 1010.4 - 7.0 - Cloudy 10 - - - -
30/09:30am 25.3 CALM 0 0 1011.7 - 7.0 - Partly cloudy 10 - - - -
30/09:00am 24.7 N 5 7 1011.5 - 7.0 - Partly cloudy 10 - - - -
30/08:30am 24.7 N 3 5 1011.0 - 7.0 - Partly cloudy 10 - - - -
30/08:00am 24.5 N 3 6 1010.6 - 7.0 - Partly cloudy 10 - - - -
30/07:30am 24.3 N 4 5 1010.2 - 7.0 - Partly cloudy 10 - - - -
30/07:16am 24.3 N 1 4 1010.3 - 7.0 - Partly cloudy 10 - - - -
30/07:05am 24.1 N 1 4 1010.2 - 7.0 - Partly cloudy 5 - - - -
30/07:00am 24.0 CALM 0 2 1008.8 - 7.0 - Cloudy 2 - - - -
30/06:56am 24.0 CALM 0 0 1010.2 - 7.0 - Partly cloudy 2 - - - -
30/06:30am 24.0 N 1 4 1009.8 - 7.0 - Partly cloudy 6 - - - -
30/06:00am 24.0 N 2 4 1009.2 - 7.0 - Partly cloudy 3 - - - -
30/05:30am 23.6 N 3 4 1008.9 - 7.0 - Partly cloudy 1 - - - -
30/05:13am 23.4 CALM 0 0 1008.9 - 7.0 - Partly cloudy 1 - - - -
30/05:05am 23.3 N 1 3 1009.0 - 7.0 - Partly cloudy 1 - - - -
30/05:00am 23.2 N 1 3 1009.0 - 7.0 - Partly cloudy 0.5 - - - -
30/04:50am 23.2 CALM 0 0 1008.9 - 7.0 - Partly cloudy 0.3 - - - -
30/04:30am 23.0 CALM 0 0 1008.8 - 7.0 - Partly cloudy 0.2 - - - -
30/04:26am 23.2 CALM 0 0 1008.8 - 7.0 - Partly cloudy 0.3 - - - -
30/04:18am 23.3 CALM 0 0 1008.8 - 7.0 - Partly cloudy 1 - - - -
30/04:00am 23.1 CALM 0 0 1007.5 - 7.0 - Mostly cloudy 4 - - - -
30/03:30am 22.8 CALM 0 0 1009.2 - 7.0 - Partly cloudy 2 - - - -
30/03:26am 22.9 CALM 0 0 1009.3 - 7.0 - Partly cloudy 1 - - - -
30/03:12am 22.9 CALM 0 0 1009.6 - 7.0 - Partly cloudy 0.9 - - - -
30/03:00am 22.9 CALM 0 0 1009.7 - 7.0 - Partly cloudy 3 - - - -
30/02:57am 22.9 CALM 0 0 1009.7 - 7.0 - Partly cloudy 5 - - - -
30/02:30am 22.9 CALM 0 0 1010.0 - 7.0 - Cloudy 8 - - - -
30/02:28am 22.9 CALM 0 0 1010.0 - 7.0 - Cloudy 8 - - - -
30/02:11am 22.8 CALM 0 0 1010.2 - 7.0 - Partly cloudy 2 - - - -
30/02:01am 22.8 CALM 0 0 1010.2 - 7.0 - Partly cloudy 0.9 - - - -
30/02:00am 22.8 CALM 0 0 1010.2 - 7.0 - Partly cloudy 0.9 - - - -
30/01:31am 22.8 CALM 0 0 1010.4 - 7.0 - Partly cloudy 0.9 - - - -
30/01:30am 22.8 CALM 0 0 1010.4 - 7.0 - Partly cloudy 1 - - - -
30/01:22am 22.9 CALM 0 0 1010.5 - 7.0 - Partly cloudy 1 - - - -
30/01:18am 22.8 CALM 0 0 1010.6 - 7.0 - Partly cloudy 0.9 - - - -
30/01:00am 22.7 CALM 0 0 1009.4 - 7.0 - Mostly cloudy 2 - - - -
30/12:52am 22.7 CALM 0 0 1010.8 - 7.0 - Partly cloudy 5 - - - -
30/12:30am 22.7 CALM 0 0 1011.0 - 7.0 - Cloudy 10 - - - -
30/12:22am 22.6 CALM 0 0 1011.2 - 7.0 - Cloudy 10 - - - -
30/12:05am 22.5 CALM 0 0 1011.4 - 7.0 - Partly cloudy 2 - - - -
30/12:00am 22.4 CALM 0 0 1011.5 - 7.0 - Partly cloudy 5 - - - -
 
Date/Time
WST
Temp
°C
Wind Pressure Rain since
9am
mm
Weather Cloud Vis
km
Sea
Height
m
Swell
Dir  Spd
kts
Gust
kts
hPa Trend Height
m
Period
s
Dir
29/11:30pm 22.6 CALM 0 1 1011.6 - 7.0 - - 10 - - - -
29/11:00pm 22.6 CALM 0 0 1011.5 - 7.0 - - 10 - - - -
29/10:30pm 22.9 CALM 0 0 1011.4 - 7.0 - - 10 - - - -
29/10:00pm 23.2 N 2 3 1009.9 - 7.0 - - 10 - - - -
29/09:30pm 23.4 N 2 3 1010.9 - 7.0 - - 10 - - - -
29/09:07pm 23.6 N 3 4 1010.9 - 7.0 - Partly cloudy 10 - - - -
29/09:00pm 23.6 N 3 4 1010.8 - 7.0 - Partly cloudy 10 - - - -
29/08:30pm 23.8 N 2 4 1010.5 - 7.0 - Partly cloudy 7 - - - -
29/08:27pm 23.8 N 1 4 1010.5 - 7.0 - Partly cloudy 7 - - - -
29/08:07pm 23.9 N 2 4 1010.3 - 7.0 - Partly cloudy 6 - - - -
29/08:00pm 23.9 N 3 4 1010.2 - 7.0 - Partly cloudy 8 - - - -
29/07:58pm 24.0 N 3 4 1010.2 - 7.0 - Partly cloudy 8 - - - -
29/07:30pm 24.1 CALM 0 0 1010.2 - 7.0 - Partly cloudy 7 - - - -
29/07:24pm 24.1 CALM 0 0 1010.2 - 7.0 - Partly cloudy 7 - - - -
29/07:00pm 24.5 N 2 4 1008.5 - 7.0 - Cloudy 6 - - - -
29/06:43pm 24.7 N 1 3 1009.8 - 7.0 - Partly cloudy 6 - - - -
29/06:30pm 24.9 CALM 0 0 1009.7 - 7.0 - Partly cloudy 10 - - - -
29/06:17pm 25.0 N 2 5 1009.6 - 7.0 - Partly cloudy 10 - - - -
29/06:00pm 25.3 N 3 4 1009.4 - 7.0 - Partly cloudy 10 - - - -
29/05:30pm 26.0 N 4 7 1009.2 - 7.0 - Partly cloudy 10 - - - -
29/05:00pm 26.3 N 6 9 1009.1 - 7.0 - Partly cloudy 10 - - - -
29/04:30pm 26.6 N 6 7 1009.1 - 7.0 - Cloudy 10 - - - -
29/04:00pm 25.8 N 5 9 1007.5 - 7.0 - Cloudy 10 - - - -
29/03:50pm 25.9 N 7 9 1008.9 - 7.0 - Partly cloudy 10 - - - -
29/03:30pm 26.9 N 7 9 1008.9 - 7.0 - Partly cloudy 10 - - - -
29/03:00pm 26.1 N 6 9 1009.4 - 7.0 - Partly cloudy 10 - - - -
29/02:50pm 25.8 N 5 7 1009.5 - 7.0 - Partly cloudy 10 - - - -
29/02:30pm 25.4 N 5 9 1009.6 - 7.0 - Partly cloudy 10 - - - -
29/02:07pm 24.9 N 5 8 1009.6 - 7.0 - Partly cloudy 10 - - - -
29/02:00pm 24.7 N 4 6 1009.7 - 7.0 - Partly cloudy 10 - - - -
29/01:45pm 24.2 N 3 6 1009.9 - 7.0 - Partly cloudy 10 - - - -
29/01:32pm 23.7 N 4 6 1010.1 - 7.0 - Partly cloudy 5 - - - -
29/01:30pm 23.5 N 4 6 1010.2 - 7.0 - Partly cloudy 5 - - - -
29/01:00pm 23.6 ENE 1 4 1009.1 - 6.0 - Cloudy 4 - - - -
29/12:30pm 23.5 ENE 5 7 1010.8 - 3.0 - Partly cloudy 3 - - - -
29/12:18pm 23.7 ENE 5 7 1010.9 - 1.4 - Partly cloudy 5 - - - -
29/12:09pm 23.8 ENE 5 7 1011.0 - 1.2 - Partly cloudy 10 - - - -
29/12:00pm 23.7 ENE 6 7 1011.1 - 1.2 - Partly cloudy 10 - - - -
29/11:51am 23.7 ENE 7 9 1011.1 - 1.0 - Partly cloudy 0.5 - - - -
29/11:48am 23.8 ENE 7 9 1011.2 - 1.0 - Cloudy 0.3 - - - -
29/11:45am 23.9 ENE 7 9 1011.2 - 1.0 - Cloudy 0.2 - - - -
29/11:44am 23.9 ENE 7 9 1011.2 - 1.0 - Cloudy 0.1 - - - -
29/11:40am 24.0 ENE 7 8 1011.2 - 1.0 - Cloudy 0.1 - - - -
29/11:34am 23.9 ENE 5 8 1011.1 - 1.0 - Cloudy 0.1 - - - -
29/11:32am 23.9 ENE 5 8 1011.1 - 1.0 - Cloudy 0.2 - - - -
29/11:30am 24.0 ENE 5 7 1011.1 - 1.0 - Cloudy 0.4 - - - -
29/11:16am 23.9 ENE 5 7 1011.3 - 0.8 - Partly cloudy 0.3 - - - -
29/11:14am 23.9 ENE 5 7 1011.4 - 0.8 - Partly cloudy 0.4 - - - -
29/11:00am 23.9 ENE 5 7 1011.7 - 0.8 - Partly cloudy 4 - - - -
29/10:46am 23.8 ENE 6 9 1011.9 - 0.8 - Partly cloudy 1 - - - -
29/10:45am 23.8 ENE 6 9 1011.9 - 0.8 - Partly cloudy 0.8 - - - -
29/10:31am 23.8 E 6 9 1012.2 - 0.6 - Cloudy 0.1 - - - -
29/10:30am 23.9 E 6 8 1012.2 - 0.6 - Cloudy 0.1 - - - -
29/10:28am 23.9 ESE 5 8 1012.2 - 0.6 - Cloudy 0.1 - - - -
29/10:07am 23.6 ESE 6 9 1011.9 - 0.0 - Cloudy 0.2 - - - -
29/10:06am 23.6 ESE 6 9 1011.9 - 0.0 - Cloudy 0.1 - - - -
29/10:03am 23.5 ESE 6 9 1011.9 - 0.0 - Cloudy 0.1 - - - -
29/10:00am 23.5 ESE 6 9 1010.4 - 76.2 - Mostly cloudy 0.2 - - - -
29/09:56am 23.4 ESE 6 9 1011.8 - 76.0 - Cloudy 0.2 - - - -
29/09:55am 23.4 ESE 6 9 1011.8 - 76.0 - Cloudy 0.2 - - - -
29/09:53am 23.4 ESE 6 9 1011.8 - 76.0 - Cloudy 0.1 - - - -
29/09:35am 23.6 ESE 5 8 1011.7 - 75.6 - Partly cloudy 0.5 - - - -
29/09:30am 23.5 ESE 5 7 1011.7 - 75.6 - Partly cloudy 5 - - - -
29/09:18am 23.3 ESE 4 6 1011.7 - 75.0 - Partly cloudy 9 - - - -
29/09:00am 23.3 E 5 7 1011.6 - 74.4 - Partly cloudy 0.5 - - - -
29/08:30am 23.2 E 8 11 1011.2 - 72.8 - Partly cloudy 0.3 - - - -
29/08:14am 23.9 ESE 7 10 1011.0 - 70.6 - Partly cloudy 0.3 - - - -
29/08:13am 24.0 ESE 6 10 1011.0 - 70.6 - Partly cloudy 0.5 - - - -
29/08:05am 23.7 ESE 4 7 1010.9 - 70.2 - Partly cloudy 6 - - - -
29/08:04am 23.7 ESE 5 7 1010.9 - 70.0 - Partly cloudy 7 - - - -
29/08:00am 23.7 ESE 5 7 1010.8 - 70.0 - Partly cloudy 8 - - - -
29/07:30am 23.5 ESE 5 7 1010.7 - 69.2 - Partly cloudy 7 - - - -
29/07:00am 23.7 ESE 6 9 1008.8 - 69.0 - Mostly cloudy 1 - - - -
29/06:59am 23.7 ESE 7 9 1010.2 - 69.0 - Cloudy 0.9 - - - -
29/06:47am 23.9 ESE 6 8 1010.0 - 68.8 - Partly cloudy 0.4 - - - -
29/06:41am 23.9 ESE 7 10 1009.9 - 68.8 - Partly cloudy 0.5 - - - -
29/06:38am 23.9 ESE 8 10 1009.9 - 68.8 - Partly cloudy 0.5 - - - -
29/06:30am 23.9 SE 7 11 1009.8 - 68.8 - Partly cloudy 1 - - - -
29/06:12am 23.6 ESE 6 11 1009.9 - 68.8 - Cloudy 5 - - - -
29/06:03am 23.6 ESE 9 13 1009.7 - 68.8 - Cloudy 0.1 - - - -
29/06:02am 23.7 ESE 9 13 1009.7 - 68.8 - Cloudy 0.1 - - - -
29/06:00am 23.8 ESE 9 13 1009.6 - 68.6 - Cloudy 0.1 - - - -
29/05:55am 23.9 ESE 9 13 1009.4 - 68.6 - Cloudy 0.1 - - - -
29/05:50am 23.9 ESE 9 12 1009.3 - 68.6 - Cloudy 0.1 - - - -
29/05:49am 24.0 ESE 9 12 1009.2 - 68.6 - Cloudy 0.1 - - - -
29/05:41am 23.7 ESE 7 10 1009.1 - 68.6 - Partly cloudy 0.2 - - - -
29/05:31am 23.7 ESE 6 11 1009.2 - 68.4 - Cloudy 0.8 - - - -
29/05:30am 23.7 ESE 6 11 1009.3 - 68.4 - Partly cloudy 1 - - - -
29/05:07am 23.5 N 3 5 1009.2 - 68.4 - Partly cloudy 0.6 - - - -
29/05:06am 23.5 N 4 5 1009.2 - 68.4 - Partly cloudy 0.5 - - - -
29/05:05am 23.4 N 4 5 1009.2 - 68.4 - Partly cloudy 0.5 - - - -
29/05:00am 23.5 N 3 4 1009.3 - 68.4 - Cloudy 0.2 - - - -
29/04:45am 23.4 N 4 5 1009.5 - 68.4 - Partly cloudy 0.8 - - - -
29/04:40am 23.3 N 4 5 1009.5 - 68.4 - Partly cloudy 5 - - - -
29/04:34am 23.1 N 2 5 1009.4 - 68.4 - Partly cloudy 10 - - - -
29/04:30am 22.9 N 1 5 1009.4 - 68.4 - Partly cloudy 10 - - - -
29/04:00am 22.9 N 4 5 1007.9 - 68.4 - Cloudy 7 - - - -
29/03:38am 22.6 N 5 7 1009.6 - 68.4 - Partly cloudy 10 - - - -
29/03:30am 22.6 N 5 7 1009.6 - 68.0 - Partly cloudy 8 - - - -
29/03:28am 22.5 NNE 5 7 1009.6 - 68.0 - Partly cloudy 6 - - - -
29/03:00am 23.4 ENE 8 12 1010.1 - 63.0 - Partly cloudy 0.4 - - - -
29/02:30am 24.1 ESE 5 8 1009.9 - 27.2 - Partly cloudy 5 - - - -
29/02:29am 24.1 ESE 5 8 1009.9 - 27.2 - Partly cloudy 5 - - - -
29/02:00am 24.2 ENE 6 10 1010.1 - 27.0 - Partly cloudy 9 - - - -
29/01:53am 23.9 E 6 9 1010.1 - 27.0 - Partly cloudy 10 - - - -
29/01:30am 24.4 ENE 7 10 1010.4 - 27.0 - Cloudy 2 - - - -
29/01:13am 24.2 ENE 6 9 1010.7 - 26.8 - Partly cloudy 6 - - - -
29/01:09am 24.1 E 6 10 1010.8 - 26.8 - Partly cloudy 8 - - - -
29/01:00am 24.0 E 8 12 1009.5 - 26.8 - Cloudy 7 - - - -
29/12:58am 24.1 E 7 12 1011.0 - 26.8 - Partly cloudy 6 - - - -
29/12:30am 24.2 ENE 5 9 1011.3 - 26.8 - Partly cloudy 10 - - - -
29/12:00am 24.4 E 7 10 1011.4 - 26.8 - Partly cloudy 9 - - - -
 
Date/Time
WST
Temp
°C
Wind Pressure Rain since
9am
mm
Weather Cloud Vis
km
Sea
Height
m
Swell
Dir  Spd
kts
Gust
kts
hPa Trend Height
m
Period
s
Dir
28/11:30pm 24.4 NNE 7 9 1011.5 - 26.8 - Partly cloudy 10 - - - -
28/11:00pm 24.3 NE 8 11 1011.7 - 26.8 - Partly cloudy 10 - - - -
28/10:30pm 24.0 NE 7 9 1011.6 - 26.8 - Partly cloudy 10 - - - -
28/10:00pm 23.9 ENE 5 7 1010.0 - 26.8 - Cloudy 10 - - - -
28/09:30pm 23.8 E 5 6 1011.0 - 26.8 - Partly cloudy 10 - - - -
28/09:00pm 24.2 E 6 8 1010.6 - 26.8 - Cloudy 9 - - - -
28/08:35pm 24.0 E 6 12 1010.4 - 26.8 - Partly cloudy 10 - - - -
28/08:30pm 23.9 E 6 10 1010.4 - 26.8 - Partly cloudy 9 - - - -
28/08:27pm 23.8 E 6 11 1010.4 - 26.8 - Partly cloudy 8 - - - -
28/08:00pm 23.6 E 7 14 1010.1 - 26.6 - Cloudy 0.2 - - - -
28/07:58pm 23.6 E 7 14 1010.2 - 26.6 - Cloudy 0.1 - - - -
28/07:49pm 23.5 SE 11 18 1010.0 - 25.2 - Cloudy 0.2 - - - -
28/07:48pm 23.5 ESE 10 18 1009.9 - 25.2 - Cloudy 0.3 - - - -
28/07:47pm 23.4 ESE 10 18 1009.9 - 25.0 - Cloudy 0.3 - - - -
28/07:30pm 23.4 ESE 13 19 1009.7 - 23.4 - Cloudy 3 - - - -
28/07:28pm 23.4 ESE 14 19 1009.7 - 23.4 - Cloudy 0.9 - - - -
28/07:23pm 23.5 ESE 13 19 1009.6 - 23.2 - Cloudy 0.2 - - - -
28/07:22pm 23.6 ESE 12 19 1009.5 - 23.2 - Cloudy 0.2 - - - -
28/07:17pm 23.6 ESE 13 19 1009.5 - 23.2 - Cloudy 0.3 - - - -
28/07:05pm 23.4 SE 13 22 1009.4 - 22.0 - Cloudy 0.1 - - - -
28/07:00pm 23.4 ESE 14 22 1007.9 - 21.4 - Mostly cloudy 0.2 - - - -
28/06:56pm 23.2 ESE 14 22 1009.2 - 21.0 - Cloudy 0.2 - - - -
28/06:52pm 23.3 ESE 13 18 1009.2 - 20.6 - Cloudy 0.2 - - - -
28/06:51pm 23.3 ESE 13 21 1009.2 - 20.4 - Cloudy 0.2 - - - -
28/06:49pm 23.2 ESE 13 21 1009.2 - 19.8 - Cloudy 0.2 - - - -
28/06:46pm 23.5 ESE 14 22 1009.1 - 19.6 - Cloudy 0.2 - - - -
28/06:30pm 22.9 E 13 20 1009.0 - 12.4 - Cloudy 0.5 - - - -
28/06:21pm 23.8 SE 14 21 1008.8 - 10.4 - Cloudy 0.2 - - - -
28/06:10pm 23.7 SE 14 21 1008.8 - 10.2 - Cloudy 0.5 - - - -
28/06:09pm 23.7 SE 14 21 1008.9 - 10.2 - Cloudy 0.5 - - - -
28/06:06pm 23.6 SE 15 22 1008.8 - 10.2 - Cloudy 0.5 - - - -
28/06:04pm 23.6 SE 15 23 1008.8 - 10.2 - Cloudy 0.5 - - - -
28/06:02pm 23.7 SE 15 23 1008.8 - 10.2 - Cloudy 0.5 - - - -
28/06:00pm 23.6 SE 15 23 1008.8 - 10.2 - Cloudy 0.6 - - - -
28/05:45pm 23.6 SE 14 20 1008.8 - 10.2 - Cloudy 0.3 - - - -
28/05:44pm 23.6 SE 14 20 1008.8 - 10.0 - Cloudy 0.3 - - - -
28/05:39pm 23.6 SE 13 20 1008.8 - 10.0 - Cloudy 0.2 - - - -
28/05:35pm 23.6 SE 11 18 1008.8 - 10.0 - Cloudy 0.3 - - - -
28/05:30pm 23.5 SE 11 18 1008.8 - 10.0 - Cloudy 0.5 - - - -
28/05:24pm 23.4 SE 12 18 1008.9 - 9.6 - Cloudy 0.3 - - - -
28/05:19pm 23.3 SE 12 17 1008.9 - 9.6 - Cloudy 0.6 - - - -
28/05:00pm 23.5 SE 13 19 1008.6 - 9.0 - Cloudy 0.9 - - - -
28/04:59pm 23.5 SE 13 19 1008.6 - 9.0 - Cloudy 0.9 - - - -
28/04:58pm 23.5 SE 13 19 1008.7 - 9.0 - Cloudy 0.9 - - - -
28/04:50pm 23.6 SE 13 20 1008.8 - 9.0 - Cloudy 0.6 - - - -
28/04:36pm 23.5 SE 13 20 1008.8 - 8.4 - Cloudy 0.3 - - - -
28/04:35pm 23.6 SE 13 20 1008.8 - 8.4 - Cloudy 0.3 - - - -
28/04:33pm 23.6 SE 13 19 1008.8 - 8.4 - Cloudy 0.3 - - - -
28/04:31pm 23.6 SE 13 19 1008.9 - 8.4 - Cloudy 0.3 - - - -
28/04:30pm 23.6 SE 13 19 1008.9 - 8.4 - Cloudy 0.3 - - - -
28/04:19pm 23.6 SE 12 20 1008.9 - 8.4 - Cloudy 0.3 - - - -
28/04:12pm 23.5 SE 12 17 1008.9 - 8.2 - Cloudy 0.9 - - - -
28/04:08pm 23.4 SE 12 17 1008.9 - 8.2 - Cloudy 1 - - - -
28/04:03pm 23.4 SE 13 21 1008.9 - 8.2 - Cloudy 0.7 - - - -
28/04:01pm 23.4 SE 13 21 1008.9 - 8.2 - Cloudy 0.5 - - - -
28/04:00pm 23.4 SE 13 21 1007.5 - 8.2 - Mostly cloudy 0.5 - - - -
28/03:59pm 23.5 SE 13 21 1008.9 - 8.2 - Cloudy 0.5 - - - -
28/03:56pm 23.5 SE 13 21 1008.9 - 8.0 - Cloudy 0.5 - - - -
28/03:47pm 23.5 SE 14 21 1008.9 - 7.6 - Cloudy 0.9 - - - -
28/03:35pm 23.5 SE 14 20 1008.9 - 7.4 - Cloudy 1 - - - -
28/03:34pm 23.5 SE 14 20 1009.0 - 7.2 - Cloudy 0.9 - - - -
28/03:30pm 23.4 ESE 14 20 1009.0 - 7.2 - Cloudy 1 - - - -
28/03:17pm 23.5 ESE 13 19 1009.1 - 7.0 - Cloudy 0.3 - - - -
28/03:06pm 23.5 ESE 14 21 1009.2 - 6.6 - Partly cloudy 0.8 - - - -
28/03:00pm 23.5 ESE 14 19 1009.2 - 6.4 - Cloudy 4 - - - -
28/02:30pm 23.5 ESE 13 18 1009.6 - 4.4 - Cloudy 6 - - - -
28/02:05pm 23.3 ESE 14 22 1010.1 - 4.0 - Cloudy 6 - - - -
28/02:00pm 23.3 ESE 13 18 1010.2 - 4.0 - Cloudy 8 - - - -
28/01:41pm 23.3 ESE 13 19 1010.6 - 3.8 - Partly cloudy 8 - - - -
28/01:30pm 23.0 ESE 13 24 1010.9 - 3.8 - Partly cloudy 6 - - - -
28/01:04pm 23.3 SE 12 19 1011.1 - 3.0 - Cloudy 6 - - - -
28/01:00pm 23.2 SE 11 16 1009.7 - 3.0 - Mostly cloudy 7 - - - -
28/12:31pm 23.1 ESE 13 21 1011.6 - 2.2 - Partly cloudy 10 - - - -
28/12:30pm 23.0 ESE 13 21 1011.6 - 2.2 - Partly cloudy 10 - - - -
28/12:12pm 23.3 ESE 14 20 1011.6 - 1.8 - Cloudy 6 - - - -
28/12:00pm 23.3 ESE 15 20 1011.7 - 1.2 - Partly cloudy 7 - - - -
28/11:51am 23.1 SE 14 21 1011.8 - 1.0 - Partly cloudy 7 - - - -
28/11:34am 23.0 SE 14 20 1012.1 - 0.6 - Partly cloudy 6 - - - -
28/11:30am 23.2 SE 13 19 1012.1 - 0.2 - Partly cloudy 10 - - - -
28/11:00am 23.1 SE 12 19 1012.6 - 0.2 - Partly cloudy 10 - - - -
28/10:30am 23.1 SE 13 19 1012.7 - 0.2 - Partly cloudy 10 - - - -
28/10:29am 23.1 SE 13 19 1012.7 - 0.2 - Partly cloudy 10 - - - -
28/10:09am 23.0 SE 12 21 1012.9 - 0.2 - Partly cloudy 6 - - - -
28/10:00am 22.8 SE 13 18 1011.5 - 18.8 - Cloudy 10 - - - -
28/09:30am 22.6 SE 11 16 1013.1 - 18.6 - Partly cloudy 10 - - - -
28/09:00am 22.5 SE 13 19 1012.9 - 18.6 - Partly cloudy 10 - - - -
28/08:51am 22.3 SE 13 18 1012.9 - 18.6 - Partly cloudy 10 - - - -
28/08:30am 22.7 SE 13 20 1012.4 - 18.4 - Cloudy 1 - - - -
28/08:00am 22.5 SE 13 20 1012.1 - 17.8 - Partly cloudy 5 - - - -
28/07:43am 22.8 SE 13 19 1011.9 - 17.6 - Partly cloudy 6 - - - -
28/07:30am 22.6 SE 12 19 1011.9 - 17.4 - Partly cloudy 8 - - - -
28/07:00am 22.2 SE 12 19 1010.2 - 16.2 - Cloudy 9 - - - -
28/06:30am 22.3 SE 13 19 1011.3 - 14.4 - Partly cloudy 9 - - - -
28/06:00am 22.3 SE 13 18 1010.9 - 13.6 - Partly cloudy 9 - - - -
28/05:30am 22.0 SE 14 20 1010.9 - 12.8 - Cloudy 0.5 - - - -

Other Formats:

Comma delimited format used in spreadsheet applications
http://www.bom.gov.au/fwo/IDW60701/IDW60701.96995.axf

JavaScript Object Notation format (JSON) in row-major order
http://www.bom.gov.au/fwo/IDW60701/IDW60701.96995.json